sensor_id;sensor_type;location;lat;lon;timestamp;P1;durP1;ratioP1;P2;durP2;ratioP2
19231;SDS011;9750;48.730;10.294;2022-10-16T00:01:28;2.53;;;2.33;;
19231;SDS011;9750;48.730;10.294;2022-10-16T00:03:57;4.07;;;2.70;;
19231;SDS011;9750;48.730;10.294;2022-10-16T00:06:26;3.60;;;2.77;;
19231;SDS011;9750;48.730;10.294;2022-10-16T00:08:54;5.77;;;3.57;;
19231;SDS011;9750;48.730;10.294;2022-10-16T00:11:24;5.47;;;2.80;;
19231;SDS011;9750;48.730;10.294;2022-10-16T00:13:54;3.13;;;2.83;;
19231;SDS011;9750;48.730;10.294;2022-10-16T00:16:22;6.77;;;3.30;;
19231;SDS011;9750;48.730;10.294;2022-10-16T00:18:50;4.97;;;3.00;;
19231;SDS011;9750;48.730;10.294;2022-10-16T00:21:18;3.73;;;3.00;;
19231;SDS011;9750;48.730;10.294;2022-10-16T00:23:49;3.63;;;3.10;;
19231;SDS011;9750;48.730;10.294;2022-10-16T00:26:17;5.67;;;3.50;;
19231;SDS011;9750;48.730;10.294;2022-10-16T00:28:47;3.50;;;3.20;;
19231;SDS011;9750;48.730;10.294;2022-10-16T00:31:15;3.80;;;3.07;;
19231;SDS011;9750;48.730;10.294;2022-10-16T00:33:44;4.03;;;3.17;;
19231;SDS011;9750;48.730;10.294;2022-10-16T00:36:12;4.10;;;3.37;;
19231;SDS011;9750;48.730;10.294;2022-10-16T00:38:41;4.47;;;3.37;;
19231;SDS011;9750;48.730;10.294;2022-10-16T00:41:09;6.97;;;3.67;;
19231;SDS011;9750;48.730;10.294;2022-10-16T00:43:39;6.20;;;3.47;;
19231;SDS011;9750;48.730;10.294;2022-10-16T00:46:13;4.17;;;3.47;;
19231;SDS011;9750;48.730;10.294;2022-10-16T00:48:45;8.07;;;3.50;;
19231;SDS011;9750;48.730;10.294;2022-10-16T00:51:16;3.83;;;3.40;;
19231;SDS011;9750;48.730;10.294;2022-10-16T00:53:48;4.73;;;3.23;;
19231;SDS011;9750;48.730;10.294;2022-10-16T00:56:16;5.60;;;3.70;;
19231;SDS011;9750;48.730;10.294;2022-10-16T00:58:44;4.93;;;3.60;;
19231;SDS011;9750;48.730;10.294;2022-10-16T01:01:13;4.30;;;3.90;;
19231;SDS011;9750;48.730;10.294;2022-10-16T01:03:40;4.10;;;3.70;;
19231;SDS011;9750;48.730;10.294;2022-10-16T01:06:09;4.47;;;3.30;;
19231;SDS011;9750;48.730;10.294;2022-10-16T01:08:47;9.63;;;3.87;;
19231;SDS011;9750;48.730;10.294;2022-10-16T01:11:25;4.43;;;3.43;;
19231;SDS011;9750;48.730;10.294;2022-10-16T01:13:58;4.73;;;3.50;;
19231;SDS011;9750;48.730;10.294;2022-10-16T01:16:34;8.73;;;4.80;;
19231;SDS011;9750;48.730;10.294;2022-10-16T01:19:08;6.30;;;3.93;;
19231;SDS011;9750;48.730;10.294;2022-10-16T01:21:40;5.27;;;3.63;;
19231;SDS011;9750;48.730;10.294;2022-10-16T01:24:12;5.40;;;3.50;;
19231;SDS011;9750;48.730;10.294;2022-10-16T01:29:42;8.27;;;3.60;;
19231;SDS011;9750;48.730;10.294;2022-10-16T01:32:17;5.43;;;3.50;;
19231;SDS011;9750;48.730;10.294;2022-10-16T01:34:48;5.53;;;3.50;;
19231;SDS011;9750;48.730;10.294;2022-10-16T01:37:21;6.07;;;3.80;;
19231;SDS011;9750;48.730;10.294;2022-10-16T01:39:55;4.70;;;3.47;;
19231;SDS011;9750;48.730;10.294;2022-10-16T01:42:28;3.70;;;3.40;;
19231;SDS011;9750;48.730;10.294;2022-10-16T01:45:00;6.80;;;4.30;;
19231;SDS011;9750;48.730;10.294;2022-10-16T01:47:31;4.10;;;3.70;;
19231;SDS011;9750;48.730;10.294;2022-10-16T01:52:53;7.23;;;3.63;;
19231;SDS011;9750;48.730;10.294;2022-10-16T01:55:24;4.57;;;3.70;;
19231;SDS011;9750;48.730;10.294;2022-10-16T01:57:56;7.33;;;3.83;;
19231;SDS011;9750;48.730;10.294;2022-10-16T02:03:48;3.97;;;3.57;;
19231;SDS011;9750;48.730;10.294;2022-10-16T02:06:19;5.03;;;3.30;;
19231;SDS011;9750;48.730;10.294;2022-10-16T02:08:47;4.67;;;3.80;;
19231;SDS011;9750;48.730;10.294;2022-10-16T02:11:14;5.13;;;3.60;;
19231;SDS011;9750;48.730;10.294;2022-10-16T02:13:43;5.80;;;3.50;;
19231;SDS011;9750;48.730;10.294;2022-10-16T02:16:15;5.27;;;3.30;;
19231;SDS011;9750;48.730;10.294;2022-10-16T02:18:42;4.60;;;3.50;;
19231;SDS011;9750;48.730;10.294;2022-10-16T02:21:11;4.40;;;3.67;;
19231;SDS011;9750;48.730;10.294;2022-10-16T02:23:46;5.80;;;3.77;;
19231;SDS011;9750;48.730;10.294;2022-10-16T02:26:20;6.10;;;4.13;;
19231;SDS011;9750;48.730;10.294;2022-10-16T02:28:56;4.03;;;3.63;;
19231;SDS011;9750;48.730;10.294;2022-10-16T02:31:31;5.87;;;3.73;;
19231;SDS011;9750;48.730;10.294;2022-10-16T02:34:01;4.10;;;3.70;;
19231;SDS011;9750;48.730;10.294;2022-10-16T02:36:30;4.17;;;3.77;;
19231;SDS011;9750;48.730;10.294;2022-10-16T02:38:59;3.60;;;3.30;;
19231;SDS011;9750;48.730;10.294;2022-10-16T02:41:29;6.20;;;3.10;;
19231;SDS011;9750;48.730;10.294;2022-10-16T02:43:58;7.57;;;3.50;;
19231;SDS011;9750;48.730;10.294;2022-10-16T02:46:25;4.27;;;3.30;;
19231;SDS011;9750;48.730;10.294;2022-10-16T02:48:53;4.77;;;3.27;;
19231;SDS011;9750;48.730;10.294;2022-10-16T02:51:20;3.70;;;3.40;;
19231;SDS011;9750;48.730;10.294;2022-10-16T02:53:47;5.57;;;3.47;;
19231;SDS011;9750;48.730;10.294;2022-10-16T02:56:14;8.43;;;3.20;;
19231;SDS011;9750;48.730;10.294;2022-10-16T02:58:42;4.70;;;2.97;;
19231;SDS011;9750;48.730;10.294;2022-10-16T03:01:10;5.90;;;3.73;;
19231;SDS011;9750;48.730;10.294;2022-10-16T03:03:39;7.40;;;3.73;;
19231;SDS011;9750;48.730;10.294;2022-10-16T03:06:06;8.67;;;3.57;;
19231;SDS011;9750;48.730;10.294;2022-10-16T03:08:33;4.87;;;3.63;;
19231;SDS011;9750;48.730;10.294;2022-10-16T03:11:01;5.87;;;3.50;;
19231;SDS011;9750;48.730;10.294;2022-10-16T03:13:28;4.63;;;3.73;;
19231;SDS011;9750;48.730;10.294;2022-10-16T03:15:55;4.10;;;3.80;;
19231;SDS011;9750;48.730;10.294;2022-10-16T03:18:24;4.47;;;3.87;;
19231;SDS011;9750;48.730;10.294;2022-10-16T03:20:51;6.27;;;3.87;;
19231;SDS011;9750;48.730;10.294;2022-10-16T03:23:19;5.40;;;4.90;;
19231;SDS011;9750;48.730;10.294;2022-10-16T03:25:46;6.13;;;5.00;;
19231;SDS011;9750;48.730;10.294;2022-10-16T03:28:13;8.70;;;6.30;;
19231;SDS011;9750;48.730;10.294;2022-10-16T03:30:40;10.40;;;5.30;;
19231;SDS011;9750;48.730;10.294;2022-10-16T03:33:09;8.50;;;5.70;;
19231;SDS011;9750;48.730;10.294;2022-10-16T03:35:38;7.47;;;5.00;;
19231;SDS011;9750;48.730;10.294;2022-10-16T03:38:05;8.73;;;5.77;;
19231;SDS011;9750;48.730;10.294;2022-10-16T03:40:32;8.67;;;5.37;;
19231;SDS011;9750;48.730;10.294;2022-10-16T03:43:00;5.37;;;4.80;;
19231;SDS011;9750;48.730;10.294;2022-10-16T03:45:27;7.70;;;4.70;;
19231;SDS011;9750;48.730;10.294;2022-10-16T03:47:54;7.63;;;4.87;;
19231;SDS011;9750;48.730;10.294;2022-10-16T03:50:21;4.80;;;4.30;;
19231;SDS011;9750;48.730;10.294;2022-10-16T03:52:50;10.63;;;4.87;;
19231;SDS011;9750;48.730;10.294;2022-10-16T03:55:17;5.37;;;4.63;;
19231;SDS011;9750;48.730;10.294;2022-10-16T03:57:44;6.23;;;4.80;;
19231;SDS011;9750;48.730;10.294;2022-10-16T04:03:31;7.97;;;4.40;;
19231;SDS011;9750;48.730;10.294;2022-10-16T04:05:58;5.50;;;4.77;;
19231;SDS011;9750;48.730;10.294;2022-10-16T04:08:27;6.63;;;4.83;;
19231;SDS011;9750;48.730;10.294;2022-10-16T04:10:54;6.53;;;5.20;;
19231;SDS011;9750;48.730;10.294;2022-10-16T04:13:21;6.13;;;4.73;;
19231;SDS011;9750;48.730;10.294;2022-10-16T04:15:49;7.20;;;4.93;;
19231;SDS011;9750;48.730;10.294;2022-10-16T04:18:16;9.23;;;4.77;;
19231;SDS011;9750;48.730;10.294;2022-10-16T04:20:43;5.70;;;5.20;;
19231;SDS011;9750;48.730;10.294;2022-10-16T04:23:11;5.87;;;5.20;;
19231;SDS011;9750;48.730;10.294;2022-10-16T04:25:39;6.83;;;5.17;;
19231;SDS011;9750;48.730;10.294;2022-10-16T04:28:07;6.27;;;5.17;;
19231;SDS011;9750;48.730;10.294;2022-10-16T04:30:34;6.00;;;4.80;;
19231;SDS011;9750;48.730;10.294;2022-10-16T04:33:03;5.57;;;4.53;;
19231;SDS011;9750;48.730;10.294;2022-10-16T04:35:31;6.03;;;5.43;;
19231;SDS011;9750;48.730;10.294;2022-10-16T04:37:58;9.10;;;5.13;;
19231;SDS011;9750;48.730;10.294;2022-10-16T04:40:25;7.53;;;5.53;;
19231;SDS011;9750;48.730;10.294;2022-10-16T04:42:54;6.97;;;4.90;;
19231;SDS011;9750;48.730;10.294;2022-10-16T04:45:21;5.40;;;4.90;;
19231;SDS011;9750;48.730;10.294;2022-10-16T04:47:49;6.13;;;5.60;;
19231;SDS011;9750;48.730;10.294;2022-10-16T04:56:32;6.20;;;5.27;;
19231;SDS011;9750;48.730;10.294;2022-10-16T04:59:06;5.77;;;4.90;;
19231;SDS011;9750;48.730;10.294;2022-10-16T05:01:34;7.40;;;4.73;;
19231;SDS011;9750;48.730;10.294;2022-10-16T05:04:01;4.67;;;4.10;;
19231;SDS011;9750;48.730;10.294;2022-10-16T05:06:28;7.40;;;4.70;;
19231;SDS011;9750;48.730;10.294;2022-10-16T05:08:55;5.60;;;5.07;;
19231;SDS011;9750;48.730;10.294;2022-10-16T05:11:23;6.67;;;5.20;;
19231;SDS011;9750;48.730;10.294;2022-10-16T05:13:50;5.43;;;4.73;;
19231;SDS011;9750;48.730;10.294;2022-10-16T05:16:19;5.73;;;4.20;;
19231;SDS011;9750;48.730;10.294;2022-10-16T05:18:46;5.03;;;4.50;;
19231;SDS011;9750;48.730;10.294;2022-10-16T05:21:13;6.27;;;4.97;;
19231;SDS011;9750;48.730;10.294;2022-10-16T05:23:41;5.20;;;4.57;;
19231;SDS011;9750;48.730;10.294;2022-10-16T05:26:08;5.50;;;4.67;;
19231;SDS011;9750;48.730;10.294;2022-10-16T05:28:35;6.70;;;5.00;;
19231;SDS011;9750;48.730;10.294;2022-10-16T05:31:04;6.20;;;4.10;;
19231;SDS011;9750;48.730;10.294;2022-10-16T05:33:33;5.50;;;4.40;;
19231;SDS011;9750;48.730;10.294;2022-10-16T05:36:01;6.10;;;4.30;;
19231;SDS011;9750;48.730;10.294;2022-10-16T05:38:29;5.50;;;4.80;;
19231;SDS011;9750;48.730;10.294;2022-10-16T05:40:56;5.40;;;4.80;;
19231;SDS011;9750;48.730;10.294;2022-10-16T05:43:23;5.33;;;4.83;;
19231;SDS011;9750;48.730;10.294;2022-10-16T05:45:54;6.87;;;3.97;;
19231;SDS011;9750;48.730;10.294;2022-10-16T05:48:22;8.40;;;4.30;;
19231;SDS011;9750;48.730;10.294;2022-10-16T05:50:57;5.40;;;4.60;;
19231;SDS011;9750;48.730;10.294;2022-10-16T05:53:26;6.60;;;4.17;;
19231;SDS011;9750;48.730;10.294;2022-10-16T05:55:53;4.97;;;4.17;;
19231;SDS011;9750;48.730;10.294;2022-10-16T05:58:22;6.27;;;4.70;;
19231;SDS011;9750;48.730;10.294;2022-10-16T06:00:53;4.60;;;4.20;;
19231;SDS011;9750;48.730;10.294;2022-10-16T06:03:21;5.70;;;4.27;;
19231;SDS011;9750;48.730;10.294;2022-10-16T06:05:48;5.40;;;4.20;;
19231;SDS011;9750;48.730;10.294;2022-10-16T06:08:18;5.03;;;4.63;;
19231;SDS011;9750;48.730;10.294;2022-10-16T06:10:46;6.17;;;4.80;;
19231;SDS011;9750;48.730;10.294;2022-10-16T06:13:14;5.23;;;4.20;;
19231;SDS011;9750;48.730;10.294;2022-10-16T06:15:42;6.63;;;4.43;;
19231;SDS011;9750;48.730;10.294;2022-10-16T06:18:09;7.43;;;4.70;;
19231;SDS011;9750;48.730;10.294;2022-10-16T06:20:37;7.73;;;5.20;;
19231;SDS011;9750;48.730;10.294;2022-10-16T06:23:04;6.80;;;4.97;;
19231;SDS011;9750;48.730;10.294;2022-10-16T06:25:33;4.97;;;4.07;;
19231;SDS011;9750;48.730;10.294;2022-10-16T06:28:00;5.90;;;4.60;;
19231;SDS011;9750;48.730;10.294;2022-10-16T06:30:27;6.07;;;4.40;;
19231;SDS011;9750;48.730;10.294;2022-10-16T06:32:55;6.10;;;4.40;;
19231;SDS011;9750;48.730;10.294;2022-10-16T06:35:22;6.13;;;4.30;;
19231;SDS011;9750;48.730;10.294;2022-10-16T06:37:49;8.17;;;4.53;;
19231;SDS011;9750;48.730;10.294;2022-10-16T06:40:16;7.10;;;4.03;;
19231;SDS011;9750;48.730;10.294;2022-10-16T06:42:45;5.23;;;4.30;;
19231;SDS011;9750;48.730;10.294;2022-10-16T06:45:12;5.30;;;4.80;;
19231;SDS011;9750;48.730;10.294;2022-10-16T06:47:40;5.93;;;5.43;;
19231;SDS011;9750;48.730;10.294;2022-10-16T06:50:07;7.90;;;5.20;;
19231;SDS011;9750;48.730;10.294;2022-10-16T06:52:34;6.23;;;4.87;;
19231;SDS011;9750;48.730;10.294;2022-10-16T06:55:02;7.97;;;5.33;;
19231;SDS011;9750;48.730;10.294;2022-10-16T06:57:29;5.97;;;4.77;;
19231;SDS011;9750;48.730;10.294;2022-10-16T06:59:58;6.93;;;6.30;;
19231;SDS011;9750;48.730;10.294;2022-10-16T07:02:25;6.20;;;5.60;;
19231;SDS011;9750;48.730;10.294;2022-10-16T07:04:53;7.80;;;5.40;;
19231;SDS011;9750;48.730;10.294;2022-10-16T07:07:22;6.90;;;6.13;;
19231;SDS011;9750;48.730;10.294;2022-10-16T07:09:49;8.07;;;7.27;;
19231;SDS011;9750;48.730;10.294;2022-10-16T07:12:17;6.20;;;5.17;;
19231;SDS011;9750;48.730;10.294;2022-10-16T07:14:44;6.60;;;5.53;;
19231;SDS011;9750;48.730;10.294;2022-10-16T07:17:13;5.43;;;4.93;;
19231;SDS011;9750;48.730;10.294;2022-10-16T07:19:58;7.27;;;6.57;;
19231;SDS011;9750;48.730;10.294;2022-10-16T07:22:25;7.57;;;6.30;;
19231;SDS011;9750;48.730;10.294;2022-10-16T07:24:55;5.10;;;4.57;;
19231;SDS011;9750;48.730;10.294;2022-10-16T07:27:22;5.07;;;4.07;;
19231;SDS011;9750;48.730;10.294;2022-10-16T07:29:50;5.53;;;4.50;;
19231;SDS011;9750;48.730;10.294;2022-10-16T07:32:18;4.90;;;3.90;;
19231;SDS011;9750;48.730;10.294;2022-10-16T07:34:46;6.40;;;4.13;;
19231;SDS011;9750;48.730;10.294;2022-10-16T07:37:13;5.87;;;4.33;;
19231;SDS011;9750;48.730;10.294;2022-10-16T07:39:40;6.07;;;3.73;;
19231;SDS011;9750;48.730;10.294;2022-10-16T07:42:07;5.47;;;3.60;;
19231;SDS011;9750;48.730;10.294;2022-10-16T07:44:35;4.17;;;3.77;;
19231;SDS011;9750;48.730;10.294;2022-10-16T07:47:02;4.60;;;3.40;;
19231;SDS011;9750;48.730;10.294;2022-10-16T07:49:31;3.67;;;3.10;;
19231;SDS011;9750;48.730;10.294;2022-10-16T07:51:58;4.07;;;3.30;;
19231;SDS011;9750;48.730;10.294;2022-10-16T07:54:25;4.37;;;3.30;;
19231;SDS011;9750;48.730;10.294;2022-10-16T07:56:53;5.33;;;3.90;;
19231;SDS011;9750;48.730;10.294;2022-10-16T07:59:20;3.60;;;3.30;;
19231;SDS011;9750;48.730;10.294;2022-10-16T08:01:48;6.20;;;3.40;;
19231;SDS011;9750;48.730;10.294;2022-10-16T08:04:15;6.57;;;4.23;;
19231;SDS011;9750;48.730;10.294;2022-10-16T08:06:44;5.07;;;3.80;;
19231;SDS011;9750;48.730;10.294;2022-10-16T08:09:11;4.60;;;3.50;;
19231;SDS011;9750;48.730;10.294;2022-10-16T08:11:39;5.67;;;3.70;;
19231;SDS011;9750;48.730;10.294;2022-10-16T08:14:06;5.17;;;3.67;;
19231;SDS011;9750;48.730;10.294;2022-10-16T08:16:33;5.17;;;3.60;;
19231;SDS011;9750;48.730;10.294;2022-10-16T08:19:01;9.93;;;4.13;;
19231;SDS011;9750;48.730;10.294;2022-10-16T08:21:28;5.30;;;3.70;;
19231;SDS011;9750;48.730;10.294;2022-10-16T08:23:57;6.27;;;3.37;;
19231;SDS011;9750;48.730;10.294;2022-10-16T08:26:26;5.13;;;3.10;;
19231;SDS011;9750;48.730;10.294;2022-10-16T08:28:54;3.77;;;3.10;;
19231;SDS011;9750;48.730;10.294;2022-10-16T08:31:22;4.57;;;2.93;;
19231;SDS011;9750;48.730;10.294;2022-10-16T08:33:49;3.83;;;2.63;;
19231;SDS011;9750;48.730;10.294;2022-10-16T08:36:17;5.17;;;3.03;;
19231;SDS011;9750;48.730;10.294;2022-10-16T08:38:46;4.90;;;2.90;;
19231;SDS011;9750;48.730;10.294;2022-10-16T08:41:21;3.20;;;2.90;;
19231;SDS011;9750;48.730;10.294;2022-10-16T08:44:13;4.00;;;3.07;;
19231;SDS011;9750;48.730;10.294;2022-10-16T08:46:55;4.07;;;2.70;;
19231;SDS011;9750;48.730;10.294;2022-10-16T08:49:29;5.37;;;2.90;;
19231;SDS011;9750;48.730;10.294;2022-10-16T08:51:57;5.17;;;3.40;;
19231;SDS011;9750;48.730;10.294;2022-10-16T08:54:27;6.87;;;2.77;;
19231;SDS011;9750;48.730;10.294;2022-10-16T08:57:07;3.60;;;2.53;;
19231;SDS011;9750;48.730;10.294;2022-10-16T08:59:37;6.27;;;2.80;;
19231;SDS011;9750;48.730;10.294;2022-10-16T09:02:08;4.63;;;2.80;;
19231;SDS011;9750;48.730;10.294;2022-10-16T09:05:02;4.10;;;2.77;;
19231;SDS011;9750;48.730;10.294;2022-10-16T09:07:46;3.33;;;2.53;;
19231;SDS011;9750;48.730;10.294;2022-10-16T09:10:39;5.37;;;2.80;;
19231;SDS011;9750;48.730;10.294;2022-10-16T09:13:17;4.30;;;2.70;;
19231;SDS011;9750;48.730;10.294;2022-10-16T09:15:50;5.63;;;3.53;;
19231;SDS011;9750;48.730;10.294;2022-10-16T09:21:44;4.97;;;4.37;;
19231;SDS011;9750;48.730;10.294;2022-10-16T09:24:13;5.77;;;3.63;;
19231;SDS011;9750;48.730;10.294;2022-10-16T09:26:42;4.97;;;3.70;;
19231;SDS011;9750;48.730;10.294;2022-10-16T09:29:12;3.30;;;3.00;;
19231;SDS011;9750;48.730;10.294;2022-10-16T09:31:40;4.90;;;3.30;;
19231;SDS011;9750;48.730;10.294;2022-10-16T09:34:20;5.37;;;3.43;;
19231;SDS011;9750;48.730;10.294;2022-10-16T09:36:52;3.67;;;3.37;;
19231;SDS011;9750;48.730;10.294;2022-10-16T09:39:20;6.73;;;3.10;;
19231;SDS011;9750;48.730;10.294;2022-10-16T09:41:47;3.77;;;3.33;;
19231;SDS011;9750;48.730;10.294;2022-10-16T09:44:21;5.40;;;3.80;;
19231;SDS011;9750;48.730;10.294;2022-10-16T09:47:00;11.67;;;3.93;;
19231;SDS011;9750;48.730;10.294;2022-10-16T09:49:29;4.70;;;3.37;;
19231;SDS011;9750;48.730;10.294;2022-10-16T09:52:03;4.93;;;3.30;;
19231;SDS011;9750;48.730;10.294;2022-10-16T09:54:31;3.53;;;3.23;;
19231;SDS011;9750;48.730;10.294;2022-10-16T09:57:05;4.27;;;2.80;;
19231;SDS011;9750;48.730;10.294;2022-10-16T09:59:44;4.47;;;2.90;;
19231;SDS011;9750;48.730;10.294;2022-10-16T10:02:13;3.37;;;2.77;;
19231;SDS011;9750;48.730;10.294;2022-10-16T10:04:44;3.70;;;2.70;;
19231;SDS011;9750;48.730;10.294;2022-10-16T10:07:17;5.13;;;3.00;;
19231;SDS011;9750;48.730;10.294;2022-10-16T10:09:47;7.20;;;3.10;;
19231;SDS011;9750;48.730;10.294;2022-10-16T10:12:16;5.33;;;2.33;;
19231;SDS011;9750;48.730;10.294;2022-10-16T10:14:47;5.63;;;2.60;;
19231;SDS011;9750;48.730;10.294;2022-10-16T10:17:17;3.27;;;2.70;;
19231;SDS011;9750;48.730;10.294;2022-10-16T10:19:47;7.13;;;2.77;;
19231;SDS011;9750;48.730;10.294;2022-10-16T10:22:24;3.90;;;2.73;;
19231;SDS011;9750;48.730;10.294;2022-10-16T10:25:18;6.23;;;2.80;;
19231;SDS011;9750;48.730;10.294;2022-10-16T10:27:53;2.67;;;2.47;;
19231;SDS011;9750;48.730;10.294;2022-10-16T10:30:32;3.80;;;2.40;;
19231;SDS011;9750;48.730;10.294;2022-10-16T10:33:11;2.60;;;2.30;;
19231;SDS011;9750;48.730;10.294;2022-10-16T10:35:45;3.10;;;1.93;;
19231;SDS011;9750;48.730;10.294;2022-10-16T10:38:22;6.03;;;2.55;;
19231;SDS011;9750;48.730;10.294;2022-10-16T10:40:57;2.60;;;2.40;;
19231;SDS011;9750;48.730;10.294;2022-10-16T10:43:39;4.53;;;2.50;;
19231;SDS011;9750;48.730;10.294;2022-10-16T10:46:18;8.20;;;4.30;;
19231;SDS011;9750;48.730;10.294;2022-10-16T10:48:59;4.50;;;2.95;;
19231;SDS011;9750;48.730;10.294;2022-10-16T10:51:42;6.30;;;2.88;;
19231;SDS011;9750;48.730;10.294;2022-10-16T10:54:17;7.55;;;2.80;;
19231;SDS011;9750;48.730;10.294;2022-10-16T10:56:50;2.97;;;2.67;;
19231;SDS011;9750;48.730;10.294;2022-10-16T10:59:37;6.93;;;3.15;;
19231;SDS011;9750;48.730;10.294;2022-10-16T11:02:21;4.10;;;3.00;;
19231;SDS011;9750;48.730;10.294;2022-10-16T11:05:04;8.00;;;5.30;;
19231;SDS011;9750;48.730;10.294;2022-10-16T11:07:57;4.72;;;3.78;;
19231;SDS011;9750;48.730;10.294;2022-10-16T11:13:21;5.60;;;3.70;;
19231;SDS011;9750;48.730;10.294;2022-10-16T11:15:56;3.88;;;2.67;;
19231;SDS011;9750;48.730;10.294;2022-10-16T11:18:29;9.05;;;5.05;;
19231;SDS011;9750;48.730;10.294;2022-10-16T11:21:04;7.30;;;5.38;;
19231;SDS011;9750;48.730;10.294;2022-10-16T11:23:35;4.90;;;4.13;;
19231;SDS011;9750;48.730;10.294;2022-10-16T11:26:10;5.93;;;3.78;;
19231;SDS011;9750;48.730;10.294;2022-10-16T11:28:42;4.22;;;3.60;;
19231;SDS011;9750;48.730;10.294;2022-10-16T11:31:14;4.18;;;2.33;;
19231;SDS011;9750;48.730;10.294;2022-10-16T11:33:48;3.95;;;2.30;;
19231;SDS011;9750;48.730;10.294;2022-10-16T11:36:22;5.22;;;3.30;;
19231;SDS011;9750;48.730;10.294;2022-10-16T11:38:55;5.75;;;2.80;;
19231;SDS011;9750;48.730;10.294;2022-10-16T11:41:27;3.60;;;2.20;;
19231;SDS011;9750;48.730;10.294;2022-10-16T11:44:16;4.85;;;2.60;;
19231;SDS011;9750;48.730;10.294;2022-10-16T11:47:01;7.13;;;2.40;;
19231;SDS011;9750;48.730;10.294;2022-10-16T11:49:39;3.73;;;2.20;;
19231;SDS011;9750;48.730;10.294;2022-10-16T11:52:11;4.90;;;2.33;;
19231;SDS011;9750;48.730;10.294;2022-10-16T11:54:44;4.57;;;1.90;;
19231;SDS011;9750;48.730;10.294;2022-10-16T11:57:17;4.05;;;2.10;;
19231;SDS011;9750;48.730;10.294;2022-10-16T11:59:48;3.10;;;2.10;;
19231;SDS011;9750;48.730;10.294;2022-10-16T12:02:33;4.00;;;2.80;;
19231;SDS011;9750;48.730;10.294;2022-10-16T12:05:14;10.05;;;6.88;;
19231;SDS011;9750;48.730;10.294;2022-10-16T12:07:50;10.23;;;7.97;;
19231;SDS011;9750;48.730;10.294;2022-10-16T12:10:25;8.82;;;5.13;;
19231;SDS011;9750;48.730;10.294;2022-10-16T12:12:56;4.90;;;2.20;;
19231;SDS011;9750;48.730;10.294;2022-10-16T12:15:25;5.88;;;3.20;;
19231;SDS011;9750;48.730;10.294;2022-10-16T12:17:53;2.85;;;2.05;;
19231;SDS011;9750;48.730;10.294;2022-10-16T12:20:25;2.25;;;1.90;;
19231;SDS011;9750;48.730;10.294;2022-10-16T12:22:57;3.80;;;2.05;;
19231;SDS011;9750;48.730;10.294;2022-10-16T12:25:27;2.92;;;2.00;;
19231;SDS011;9750;48.730;10.294;2022-10-16T12:27:56;3.72;;;1.95;;
19231;SDS011;9750;48.730;10.294;2022-10-16T12:30:28;4.88;;;2.15;;
19231;SDS011;9750;48.730;10.294;2022-10-16T12:32:57;2.78;;;2.17;;
19231;SDS011;9750;48.730;10.294;2022-10-16T12:35:29;6.43;;;1.88;;
19231;SDS011;9750;48.730;10.294;2022-10-16T12:38:05;3.75;;;2.10;;
19231;SDS011;9750;48.730;10.294;2022-10-16T12:40:35;3.35;;;1.90;;
19231;SDS011;9750;48.730;10.294;2022-10-16T12:43:23;2.67;;;1.73;;
19231;SDS011;9750;48.730;10.294;2022-10-16T12:46:23;2.95;;;1.80;;
19231;SDS011;9750;48.730;10.294;2022-10-16T12:49:05;3.30;;;2.30;;
19231;SDS011;9750;48.730;10.294;2022-10-16T12:51:52;3.63;;;2.13;;
19231;SDS011;9750;48.730;10.294;2022-10-16T12:54:20;2.78;;;2.00;;
19231;SDS011;9750;48.730;10.294;2022-10-16T12:57:01;7.20;;;2.90;;
19231;SDS011;9750;48.730;10.294;2022-10-16T12:59:38;5.18;;;2.38;;
19231;SDS011;9750;48.730;10.294;2022-10-16T13:02:34;4.57;;;2.60;;
19231;SDS011;9750;48.730;10.294;2022-10-16T13:05:21;5.30;;;2.20;;
19231;SDS011;9750;48.730;10.294;2022-10-16T13:08:11;4.13;;;2.10;;
19231;SDS011;9750;48.730;10.294;2022-10-16T13:10:52;3.20;;;2.10;;
19231;SDS011;9750;48.730;10.294;2022-10-16T13:13:34;4.20;;;2.33;;
19231;SDS011;9750;48.730;10.294;2022-10-16T13:16:12;3.38;;;1.80;;
19231;SDS011;9750;48.730;10.294;2022-10-16T13:18:49;4.75;;;2.25;;
19231;SDS011;9750;48.730;10.294;2022-10-16T13:21:30;4.20;;;1.95;;
19231;SDS011;9750;48.730;10.294;2022-10-16T13:24:09;2.90;;;2.20;;
19231;SDS011;9750;48.730;10.294;2022-10-16T13:26:48;3.60;;;2.10;;
19231;SDS011;9750;48.730;10.294;2022-10-16T13:29:22;5.30;;;2.55;;
19231;SDS011;9750;48.730;10.294;2022-10-16T13:31:50;3.00;;;1.95;;
19231;SDS011;9750;48.730;10.294;2022-10-16T13:34:18;2.67;;;2.30;;
19231;SDS011;9750;48.730;10.294;2022-10-16T13:36:48;5.70;;;2.35;;
19231;SDS011;9750;48.730;10.294;2022-10-16T13:39:22;3.00;;;1.90;;
19231;SDS011;9750;48.730;10.294;2022-10-16T13:41:58;4.03;;;2.20;;
19231;SDS011;9750;48.730;10.294;2022-10-16T13:44:30;3.75;;;1.85;;
19231;SDS011;9750;48.730;10.294;2022-10-16T13:47:02;2.08;;;1.95;;
19231;SDS011;9750;48.730;10.294;2022-10-16T13:49:29;4.40;;;2.10;;
19231;SDS011;9750;48.730;10.294;2022-10-16T13:51:57;3.20;;;2.13;;
19231;SDS011;9750;48.730;10.294;2022-10-16T13:54:27;4.35;;;2.05;;
19231;SDS011;9750;48.730;10.294;2022-10-16T13:56:55;3.55;;;2.15;;
19231;SDS011;9750;48.730;10.294;2022-10-16T14:02:44;5.15;;;2.03;;
19231;SDS011;9750;48.730;10.294;2022-10-16T14:05:17;4.65;;;1.98;;
19231;SDS011;9750;48.730;10.294;2022-10-16T14:07:47;6.78;;;2.22;;
19231;SDS011;9750;48.730;10.294;2022-10-16T14:10:22;4.63;;;2.00;;
19231;SDS011;9750;48.730;10.294;2022-10-16T14:12:55;8.15;;;2.25;;
19231;SDS011;9750;48.730;10.294;2022-10-16T14:15:25;3.75;;;2.08;;
19231;SDS011;9750;48.730;10.294;2022-10-16T14:17:52;10.80;;;2.83;;
19231;SDS011;9750;48.730;10.294;2022-10-16T14:20:22;4.50;;;1.98;;
19231;SDS011;9750;48.730;10.294;2022-10-16T14:22:59;7.70;;;2.58;;
19231;SDS011;9750;48.730;10.294;2022-10-16T14:25:29;4.25;;;2.38;;
19231;SDS011;9750;48.730;10.294;2022-10-16T14:27:59;2.47;;;2.08;;
19231;SDS011;9750;48.730;10.294;2022-10-16T14:30:28;3.20;;;1.60;;
19231;SDS011;9750;48.730;10.294;2022-10-16T14:32:57;6.80;;;2.08;;
19231;SDS011;9750;48.730;10.294;2022-10-16T14:35:27;3.97;;;2.25;;
19231;SDS011;9750;48.730;10.294;2022-10-16T14:37:56;6.28;;;2.05;;
19231;SDS011;9750;48.730;10.294;2022-10-16T14:40:27;7.72;;;2.38;;
19231;SDS011;9750;48.730;10.294;2022-10-16T14:42:57;8.43;;;2.50;;
19231;SDS011;9750;48.730;10.294;2022-10-16T14:45:26;8.18;;;2.50;;
19231;SDS011;9750;48.730;10.294;2022-10-16T14:47:56;8.63;;;2.53;;
19231;SDS011;9750;48.730;10.294;2022-10-16T14:50:25;10.57;;;2.50;;
19231;SDS011;9750;48.730;10.294;2022-10-16T14:52:52;4.80;;;2.22;;
19231;SDS011;9750;48.730;10.294;2022-10-16T14:55:20;5.22;;;2.50;;
19231;SDS011;9750;48.730;10.294;2022-10-16T14:57:49;4.07;;;2.40;;
19231;SDS011;9750;48.730;10.294;2022-10-16T15:02:50;4.13;;;2.78;;
19231;SDS011;9750;48.730;10.294;2022-10-16T15:05:18;2.60;;;2.13;;
19231;SDS011;9750;48.730;10.294;2022-10-16T15:07:47;3.70;;;2.58;;
19231;SDS011;9750;48.730;10.294;2022-10-16T15:10:15;4.43;;;2.58;;
19231;SDS011;9750;48.730;10.294;2022-10-16T15:12:44;5.40;;;2.70;;
19231;SDS011;9750;48.730;10.294;2022-10-16T15:15:23;2.90;;;2.30;;
19231;SDS011;9750;48.730;10.294;2022-10-16T15:17:55;4.65;;;2.47;;
19231;SDS011;9750;48.730;10.294;2022-10-16T15:20:25;7.53;;;2.28;;
19231;SDS011;9750;48.730;10.294;2022-10-16T15:22:53;5.97;;;2.40;;
19231;SDS011;9750;48.730;10.294;2022-10-16T15:25:26;4.10;;;2.60;;
19231;SDS011;9750;48.730;10.294;2022-10-16T15:27:58;8.45;;;2.58;;
19231;SDS011;9750;48.730;10.294;2022-10-16T15:33:18;3.97;;;2.35;;
19231;SDS011;9750;48.730;10.294;2022-10-16T15:35:48;4.63;;;2.60;;
19231;SDS011;9750;48.730;10.294;2022-10-16T15:38:17;4.60;;;2.35;;
19231;SDS011;9750;48.730;10.294;2022-10-16T15:40:45;4.88;;;2.25;;
19231;SDS011;9750;48.730;10.294;2022-10-16T15:43:13;5.07;;;2.20;;
19231;SDS011;9750;48.730;10.294;2022-10-16T15:45:40;7.32;;;2.40;;